Time;durP1;ratioP1;P1;durP2;ratioP2;P2;SDS_P1;SDS_P2;PMS_P1;PMS_P2;Temp;Humidity;BMP_temperature;BMP_pressure;BME280_temperature;BME280_humidity;BME280_pressure;Samples;Min_cycle;Max_cycle;Signal;HPM_P1;HPM_P2
2021/05/07 00:00:28;;;;;;;12.63;5.05;;;17.90;60.90;;;;;;5033389;28;20026;-69
2021/05/07 00:02:54;;;;;;;12.95;5.07;;;17.90;60.60;;;;;;5033593;28;20112;-69
2021/05/07 00:05:19;;;;;;;13.50;4.63;;;17.90;60.80;;;;;;5033477;28;20470;-71
2021/05/07 00:07:45;;;;;;;13.55;5.28;;;17.90;60.50;;;;;;5033548;28;20028;-70
2021/05/07 00:10:13;;;;;;;11.95;5.47;;;17.90;60.80;;;;;;5015897;28;20547;-71
2021/05/07 00:12:39;;;;;;;15.07;5.05;;;17.90;61.00;;;;;;5033202;28;20029;-72
2021/05/07 00:15:06;;;;;;;10.25;5.30;;;17.80;60.80;;;;;;5033437;28;20026;-74
2021/05/07 00:17:32;;;;;;;12.63;5.45;;;17.80;60.70;;;;;;5033663;28;20022;-74
2021/05/07 00:19:57;;;;;;;10.30;4.53;;;17.90;61.00;;;;;;5033508;28;20034;-70
2021/05/07 00:22:23;;;;;;;10.13;4.22;;;17.90;60.70;;;;;;5032982;28;20041;-69
2021/05/07 00:24:49;;;;;;;13.13;5.43;;;17.90;60.50;;;;;;5033378;28;20076;-70
2021/05/07 00:27:17;;;;;;;9.98;3.88;;;17.90;60.70;;;;;;5033666;28;20380;-70
2021/05/07 00:29:46;;;;;;;10.10;4.35;;;17.90;60.50;;;;;;5033277;28;20041;-69
2021/05/07 00:32:11;;;;;;;11.45;3.22;;;17.80;60.20;;;;;;5032993;28;20028;-69
2021/05/07 00:34:37;;;;;;;10.98;3.25;;;17.80;60.40;;;;;;5033323;28;20033;-68
2021/05/07 00:37:03;;;;;;;10.30;3.55;;;17.80;60.40;;;;;;5033255;28;20073;-69
2021/05/07 00:39:28;;;;;;;10.00;2.85;;;17.70;60.40;;;;;;5033177;28;20067;-71
2021/05/07 00:42:01;;;;;;;8.85;3.00;;;17.70;60.50;;;;;;5033157;28;20071;-68
2021/05/07 00:44:26;;;;;;;9.68;2.67;;;17.70;60.30;;;;;;5033520;28;20029;-68
2021/05/07 00:46:53;;;;;;;10.57;2.40;;;17.60;60.20;;;;;;5033203;28;20032;-70
2021/05/07 00:49:19;;;;;;;10.13;2.20;;;17.60;60.10;;;;;;5032984;28;20044;-68
2021/05/07 00:51:44;;;;;;;6.97;2.22;;;17.60;60.10;;;;;;5032922;28;20036;-68
2021/05/07 00:54:10;;;;;;;7.10;2.58;;;17.60;60.10;;;;;;5032971;28;20037;-69
2021/05/07 00:56:36;;;;;;;8.45;2.90;;;17.60;60.30;;;;;;5033037;28;20017;-68
2021/05/07 00:59:02;;;;;;;7.82;2.42;;;17.60;60.20;;;;;;5036132;28;20060;-69
2021/05/07 01:01:30;;;;;;;5.82;2.83;;;17.60;60.00;;;;;;5018849;28;20510;-69
2021/05/07 01:03:56;;;;;;;5.22;2.00;;;17.50;60.00;;;;;;5037028;28;20041;-69
2021/05/07 01:06:23;;;;;;;11.60;4.35;;;17.50;60.20;;;;;;5036971;28;20032;-69
2021/05/07 01:08:48;;;;;;;6.18;2.03;;;17.50;60.00;;;;;;5036795;28;20148;-68
2021/05/07 01:11:14;;;;;;;5.05;1.83;;;17.50;60.10;;;;;;5036947;28;20105;-68
2021/05/07 01:13:40;;;;;;;9.75;2.35;;;17.50;60.10;;;;;;5036643;28;20033;-68
2021/05/07 01:16:07;;;;;;;8.40;2.13;;;17.60;60.20;;;;;;5036889;28;20025;-68
2021/05/07 01:18:32;;;;;;;7.50;1.83;;;17.60;60.20;;;;;;5036706;28;20037;-69
2021/05/07 01:20:58;;;;;;;6.68;2.05;;;17.60;60.00;;;;;;5018721;28;20036;-69
2021/05/07 01:23:24;;;;;;;6.55;2.05;;;17.60;60.30;;;;;;5036188;28;20045;-69
2021/05/07 01:25:50;;;;;;;7.18;2.10;;;17.60;60.40;;;;;;5036263;28;20024;-68
2021/05/07 01:28:16;;;;;;;8.75;2.13;;;17.50;60.70;;;;;;5036526;28;20112;-68
2021/05/07 01:30:46;;;;;;;9.95;2.08;;;17.40;60.60;;;;;;5036288;28;20021;-68
2021/05/07 01:33:15;;;;;;;7.70;1.70;;;17.50;60.80;;;;;;5036552;28;20053;-68
2021/05/07 01:35:42;;;;;;;7.95;2.03;;;17.50;60.80;;;;;;5036234;28;20033;-68
2021/05/07 01:38:14;;;;;;;5.15;1.88;;;17.50;61.00;;;;;;5036193;28;20025;-68
2021/05/07 01:40:48;;;;;;;5.43;1.83;;;17.50;61.00;;;;;;5036315;28;20017;-68
2021/05/07 01:43:14;;;;;;;6.68;2.05;;;17.40;61.00;;;;;;5036359;28;20121;-68
2021/05/07 01:45:43;;;;;;;9.15;1.90;;;17.50;61.30;;;;;;5036275;28;20422;-68
2021/05/07 01:48:09;;;;;;;11.00;3.10;;;17.50;61.30;;;;;;5036030;28;20404;-68
2021/05/07 01:50:37;;;;;;;6.43;2.10;;;17.50;61.60;;;;;;5035903;28;20033;-69
2021/05/07 01:53:04;;;;;;;9.90;2.15;;;17.50;61.40;;;;;;5036083;28;20022;-69
2021/05/07 01:55:40;;;;;;;6.82;1.67;;;17.40;61.50;;;;;;5035858;28;20379;-69
2021/05/07 01:58:09;;;;;;;6.80;2.00;;;17.40;61.90;;;;;;5018219;28;20116;-69
2021/05/07 02:00:35;;;;;;;7.78;2.25;;;17.40;62.00;;;;;;5017958;28;20032;-70
2021/05/07 02:03:03;;;;;;;9.45;2.38;;;17.40;61.90;;;;;;5035781;28;20025;-68
2021/05/07 02:05:32;;;;;;;6.78;1.60;;;17.50;62.10;;;;;;5035791;28;20442;-68
2021/05/07 02:07:58;;;;;;;6.95;1.83;;;17.50;62.30;;;;;;5035522;28;20025;-67
2021/05/07 02:10:27;;;;;;;4.53;1.70;;;17.40;62.60;;;;;;5035321;28;20025;-70
2021/05/07 02:12:55;;;;;;;8.95;2.38;;;17.40;62.50;;;;;;5035644;28;20033;-68
2021/05/07 02:15:22;;;;;;;8.98;1.95;;;17.40;62.50;;;;;;5035572;28;20105;-69
2021/05/07 02:17:49;;;;;;;11.50;2.92;;;17.30;62.70;;;;;;5035692;28;20057;-68
2021/05/07 02:20:16;;;;;;;8.20;2.35;;;17.30;62.90;;;;;;5035606;28;20075;-69
2021/05/07 02:22:47;;;;;;;6.45;2.33;;;17.30;63.30;;;;;;5035307;28;20045;-68
2021/05/07 02:25:14;;;;;;;7.32;2.10;;;17.20;63.30;;;;;;5035568;28;20056;-68
2021/05/07 02:27:40;;;;;;;8.18;2.63;;;17.20;63.70;;;;;;5035390;28;20354;-68
2021/05/07 02:30:08;;;;;;;6.03;1.75;;;17.20;63.90;;;;;;5035398;28;20042;-69
2021/05/07 02:32:33;;;;;;;8.25;2.20;;;17.30;63.90;;;;;;5035068;28;20041;-68
2021/05/07 02:34:59;;;;;;;6.72;1.92;;;17.20;64.20;;;;;;5035277;28;20482;-69
2021/05/07 02:37:25;;;;;;;5.80;1.98;;;17.30;64.00;;;;;;5035225;28;20021;-70
2021/05/07 02:39:51;;;;;;;8.75;2.50;;;17.30;64.10;;;;;;5035117;28;20021;-69
2021/05/07 02:42:17;;;;;;;11.23;2.83;;;17.30;64.00;;;;;;5034884;28;20040;-68
2021/05/07 02:44:42;;;;;;;10.25;2.40;;;17.40;64.00;;;;;;5035140;28;20390;-68
2021/05/07 02:47:08;;;;;;;7.45;2.05;;;17.40;63.90;;;;;;5035142;28;20049;-69
2021/05/07 02:49:35;;;;;;;9.25;2.30;;;17.40;63.90;;;;;;5035168;28;20040;-68
2021/05/07 02:52:02;;;;;;;8.63;2.17;;;17.40;63.80;;;;;;5034768;28;20116;-68
2021/05/07 02:54:29;;;;;;;11.63;2.00;;;17.30;64.00;;;;;;5034840;28;20034;-68
2021/05/07 02:56:54;;;;;;;8.15;2.13;;;17.40;64.00;;;;;;5034843;28;20028;-68
2021/05/07 02:59:20;;;;;;;8.07;1.60;;;17.40;64.20;;;;;;5035063;28;20025;-68
2021/05/07 03:01:46;;;;;;;7.68;1.80;;;17.40;64.20;;;;;;5034700;28;20022;-70
2021/05/07 03:04:11;;;;;;;7.90;1.90;;;17.50;64.00;;;;;;5034826;28;20024;-68
2021/05/07 03:06:37;;;;;;;7.90;1.80;;;17.50;64.00;;;;;;5034645;28;20017;-69
2021/05/07 03:09:04;;;;;;;8.10;2.00;;;17.60;63.70;;;;;;5034464;28;20025;-68
2021/05/07 03:11:29;;;;;;;7.35;2.10;;;17.60;63.70;;;;;;5034388;28;20387;-69
2021/05/07 03:13:55;;;;;;;8.50;2.25;;;17.60;64.40;;;;;;5034531;28;20025;-69
2021/05/07 03:16:22;;;;;;;5.35;1.85;;;17.60;63.40;;;;;;5034221;28;20030;-68
2021/05/07 03:18:51;;;;;;;9.18;2.30;;;17.70;63.50;;;;;;5034480;28;20022;-68
2021/05/07 03:21:17;;;;;;;7.50;2.13;;;17.60;63.30;;;;;;5033206;28;20036;-69
2021/05/07 03:23:43;;;;;;;6.82;2.03;;;17.60;63.10;;;;;;5034462;28;20036;-69
2021/05/07 03:26:09;;;;;;;7.55;2.10;;;17.60;63.00;;;;;;5034203;28;20379;-68
2021/05/07 03:28:37;;;;;;;8.60;1.98;;;17.60;62.70;;;;;;5034326;28;20087;-68
2021/05/07 03:31:03;;;;;;;7.05;2.10;;;17.60;62.90;;;;;;5034037;28;20378;-69
2021/05/07 03:33:28;;;;;;;6.97;1.75;;;17.60;62.80;;;;;;5034091;28;20033;-69
2021/05/07 03:35:54;;;;;;;8.00;1.90;;;17.60;62.70;;;;;;5034123;28;20514;-68
2021/05/07 03:38:20;;;;;;;7.45;2.00;;;17.50;62.60;;;;;;5034081;28;20049;-70
2021/05/07 03:40:46;;;;;;;7.10;2.20;;;17.50;62.70;;;;;;5034145;28;20032;-69
2021/05/07 03:43:11;;;;;;;9.18;2.33;;;17.40;62.50;;;;;;5034354;28;20084;-68
2021/05/07 03:45:37;;;;;;;8.65;2.03;;;17.40;62.40;;;;;;5034563;28;20113;-68
2021/05/07 03:48:16;;;;;;;8.15;2.47;;;17.40;62.10;;;;;;5016468;28;20025;-68
2021/05/07 03:50:42;;;;;;;5.50;2.40;;;17.30;62.20;;;;;;5033799;28;20037;-69
2021/05/07 03:53:12;;;;;;;6.05;2.50;;;17.30;62.20;;;;;;5033735;28;20021;-68
2021/05/07 03:55:38;;;;;;;9.27;2.58;;;17.20;62.00;;;;;;5033887;28;20033;-68
2021/05/07 03:58:04;;;;;;;9.73;2.70;;;17.20;62.50;;;;;;5034003;28;20480;-69
2021/05/07 04:00:30;;;;;;;8.63;3.22;;;17.20;62.40;;;;;;5033742;28;20100;-69
2021/05/07 04:02:55;;;;;;;8.10;4.00;;;17.10;62.40;;;;;;5033756;28;20027;-68
2021/05/07 04:05:21;;;;;;;10.20;3.72;;;17.00;62.70;;;;;;5033380;28;20021;-69
2021/05/07 04:07:54;;;;;;;16.55;4.70;;;17.00;63.20;;;;;;5033767;28;20371;-69
2021/05/07 04:10:21;;;;;;;10.52;4.40;;;16.90;63.10;;;;;;5033506;28;20026;-68
2021/05/07 04:15:13;;;;;;;9.18;3.35;;;16.70;63.50;;;;;;5033551;28;20029;-70
2021/05/07 04:17:39;;;;;;;7.93;3.65;;;16.70;63.60;;;;;;5033614;28;20116;-69
2021/05/07 04:20:06;;;;;;;8.52;3.60;;;16.60;63.40;;;;;;5033462;28;20108;-69
2021/05/07 04:22:32;;;;;;;9.13;3.58;;;16.60;64.10;;;;;;5032957;28;20056;-68
2021/05/07 04:24:58;;;;;;;9.38;3.67;;;16.50;63.70;;;;;;5033313;28;20033;-69
2021/05/07 04:27:24;;;;;;;8.30;3.83;;;16.50;63.80;;;;;;5033280;28;20540;-69
2021/05/07 04:29:50;;;;;;;9.68;3.80;;;16.50;63.70;;;;;;5033286;28;20033;-70
2021/05/07 04:32:16;;;;;;;10.38;3.70;;;16.50;63.40;;;;;;5034064;28;20025;-70
2021/05/07 04:34:42;;;;;;;10.98;3.53;;;16.60;63.60;;;;;;5039789;28;20537;-70
2021/05/07 04:37:07;;;;;;;12.23;3.70;;;16.50;63.40;;;;;;5039949;28;20029;-69
2021/05/07 04:39:33;;;;;;;10.30;3.67;;;16.50;63.50;;;;;;5039897;28;20056;-70
2021/05/07 04:41:59;;;;;;;13.07;3.95;;;16.50;63.60;;;;;;5039684;28;20551;-69
2021/05/07 04:44:25;;;;;;;7.53;3.33;;;16.60;63.70;;;;;;5039832;28;20104;-69
2021/05/07 04:46:52;;;;;;;13.00;3.60;;;16.60;64.00;;;;;;5039885;28;20100;-73
2021/05/07 04:49:18;;;;;;;9.50;3.92;;;16.60;63.20;;;;;;5039756;28;20368;-70
2021/05/07 04:51:44;;;;;;;14.27;3.95;;;16.60;63.20;;;;;;5039410;28;20030;-72
2021/05/07 04:54:10;;;;;;;8.98;3.63;;;16.50;63.40;;;;;;5039776;28;20022;-72
2021/05/07 04:56:36;;;;;;;9.82;3.78;;;16.50;63.40;;;;;;5039938;28;20014;-71
2021/05/07 04:59:01;;;;;;;10.32;3.70;;;16.60;63.40;;;;;;5039938;28;20084;-73
2021/05/07 05:01:27;;;;;;;10.40;3.80;;;16.60;63.20;;;;;;5039628;28;20036;-68
2021/05/07 05:03:53;;;;;;;8.38;3.70;;;16.70;63.60;;;;;;5039538;28;20479;-69
2021/05/07 05:06:18;;;;;;;11.77;3.92;;;16.80;63.30;;;;;;5039827;28;20032;-67
2021/05/07 05:08:44;;;;;;;13.93;4.20;;;16.90;63.30;;;;;;5039676;28;20036;-69
2021/05/07 05:11:10;;;;;;;12.93;3.95;;;16.90;62.90;;;;;;5039276;28;20033;-68
2021/05/07 05:13:35;;;;;;;11.63;4.80;;;16.90;62.70;;;;;;5039605;28;20025;-70
2021/05/07 05:16:01;;;;;;;12.63;4.20;;;17.00;62.90;;;;;;5039336;28;20061;-69
2021/05/07 05:18:32;;;;;;;13.40;4.75;;;17.10;62.40;;;;;;5039574;28;20466;-69
2021/05/07 05:21:02;;;;;;;13.23;4.45;;;17.30;62.20;;;;;;5039857;28;20104;-70
2021/05/07 05:23:29;;;;;;;13.20;5.20;;;17.50;62.40;;;;;;5039211;28;20093;-69
2021/05/07 05:25:56;;;;;;;14.45;5.13;;;17.70;61.10;;;;;;5039402;28;20437;-69
2021/05/07 05:28:22;;;;;;;10.10;4.82;;;17.90;61.00;;;;;;5039007;28;20025;-69
2021/05/07 05:30:48;;;;;;;12.73;5.45;;;18.10;60.40;;;;;;5039238;28;20091;-70
2021/05/07 05:33:14;;;;;;;14.60;4.88;;;18.30;59.90;;;;;;5039230;28;20022;-69
2021/05/07 05:35:40;;;;;;;11.48;4.10;;;18.50;59.60;;;;;;5021491;28;20063;-69
2021/05/07 05:38:07;;;;;;;11.15;3.17;;;18.70;58.90;;;;;;5021211;28;20366;-68
2021/05/07 05:40:33;;;;;;;12.65;3.70;;;18.80;58.30;;;;;;5038709;28;20029;-69
2021/05/07 05:43:01;;;;;;;12.02;3.92;;;18.90;58.50;;;;;;5039047;28;20483;-70
2021/05/07 05:45:26;;;;;;;10.57;3.38;;;19.00;58.30;;;;;;5017830;28;20325;-69
2021/05/07 05:48:09;;;;;;;12.88;3.53;;;19.00;57.70;;;;;;5035627;28;20029;-69
2021/05/07 05:50:36;;;;;;;9.15;3.20;;;19.10;57.70;;;;;;5035956;28;20045;-69
2021/05/07 05:53:02;;;;;;;6.97;3.50;;;19.30;57.60;;;;;;5035666;28;20029;-68
2021/05/07 05:55:29;;;;;;;9.30;3.35;;;19.40;57.40;;;;;;5035848;28;20029;-68
2021/05/07 05:57:55;;;;;;;12.20;3.90;;;19.60;57.10;;;;;;5035543;28;20075;-69
2021/05/07 06:00:21;;;;;;;10.80;3.80;;;19.80;57.00;;;;;;5035284;28;20109;-68
2021/05/07 06:02:48;;;;;;;8.50;3.50;;;20.00;56.80;;;;;;5035380;28;20115;-69
2021/05/07 06:05:14;;;;;;;12.43;4.00;;;20.20;56.60;;;;;;5017502;28;20021;-70
2021/05/07 06:07:41;;;;;;;12.13;3.83;;;20.40;56.50;;;;;;5035189;28;20025;-69
2021/05/07 06:10:08;;;;;;;9.55;3.45;;;20.50;56.40;;;;;;5035352;28;20116;-68
2021/05/07 06:12:34;;;;;;;9.45;4.40;;;20.70;56.50;;;;;;5035104;28;20100;-70
2021/05/07 06:15:00;;;;;;;11.07;4.38;;;20.90;56.30;;;;;;5034991;28;20535;-70
2021/05/07 06:17:27;;;;;;;14.30;4.38;;;21.00;56.30;;;;;;5035144;28;20032;-68
2021/05/07 06:19:53;;;;;;;10.43;3.97;;;21.20;56.30;;;;;;5035105;28;20017;-69
2021/05/07 06:22:18;;;;;;;7.88;3.03;;;21.40;56.40;;;;;;5034423;28;20064;-69
2021/05/07 06:24:45;;;;;;;12.45;3.53;;;21.50;56.70;;;;;;5035277;28;20022;-71
2021/05/07 06:27:11;;;;;;;8.30;2.95;;;21.80;56.80;;;;;;5034542;28;20033;-69
2021/05/07 06:29:37;;;;;;;11.30;3.47;;;22.00;56.70;;;;;;5034553;28;20133;-68
2021/05/07 06:32:03;;;;;;;13.35;3.75;;;22.20;56.70;;;;;;5034622;28;20490;-70
2021/05/07 06:34:28;;;;;;;12.32;3.55;;;22.40;56.30;;;;;;5034761;28;20390;-69
2021/05/07 06:36:54;;;;;;;16.05;4.47;;;22.50;56.00;;;;;;5034844;28;20505;-69
2021/05/07 06:39:20;;;;;;;9.13;3.63;;;22.70;55.70;;;;;;5034715;28;20033;-69
2021/05/07 06:41:45;;;;;;;13.50;3.30;;;22.80;55.50;;;;;;5016821;28;20030;-69
2021/05/07 06:44:11;;;;;;;10.43;3.38;;;22.90;55.50;;;;;;5034667;28;20017;-69
2021/05/07 06:46:37;;;;;;;12.88;2.63;;;23.10;55.30;;;;;;5034912;28;20017;-70
2021/05/07 06:49:03;;;;;;;10.55;2.80;;;23.30;55.10;;;;;;5034603;28;20037;-70
2021/05/07 06:51:29;;;;;;;9.88;3.08;;;23.40;54.40;;;;;;5034683;28;20033;-71
2021/05/07 06:53:55;;;;;;;10.90;2.33;;;23.40;53.90;;;;;;5034499;28;20021;-69
2021/05/07 06:56:21;;;;;;;8.80;2.10;;;23.20;54.20;;;;;;5034229;28;20022;-70
2021/05/07 06:58:50;;;;;;;6.15;2.33;;;23.10;54.20;;;;;;5034513;28;20022;-69
2021/05/07 07:01:16;;;;;;;9.23;2.40;;;23.10;54.00;;;;;;5034523;28;20068;-70
2021/05/07 07:03:42;;;;;;;12.30;2.50;;;23.10;53.50;;;;;;5034738;28;20022;-70
2021/05/07 07:06:09;;;;;;;9.18;2.20;;;23.20;53.50;;;;;;5034308;28;20420;-69
2021/05/07 07:08:34;;;;;;;14.07;2.40;;;23.20;53.00;;;;;;5034337;28;20170;-69
2021/05/07 07:11:00;;;;;;;10.15;2.10;;;23.10;53.60;;;;;;5034387;28;20029;-68
2021/05/07 07:13:27;;;;;;;8.75;2.20;;;23.20;53.70;;;;;;5034308;28;20387;-70
2021/05/07 07:15:53;;;;;;;6.07;2.20;;;23.30;53.80;;;;;;5034011;28;20371;-69
2021/05/07 07:18:19;;;;;;;11.75;2.28;;;23.20;53.50;;;;;;5033655;28;20028;-69
2021/05/07 07:20:46;;;;;;;8.52;2.40;;;23.20;53.80;;;;;;5033890;28;20033;-70
2021/05/07 07:23:11;;;;;;;7.60;2.20;;;23.10;54.00;;;;;;5033616;28;20060;-69
2021/05/07 07:25:37;;;;;;;7.45;2.30;;;23.20;54.00;;;;;;5033923;28;20022;-69
2021/05/07 07:28:06;;;;;;;9.75;2.30;;;23.40;53.40;;;;;;5016002;28;20063;-70
2021/05/07 07:30:32;;;;;;;6.00;2.10;;;23.50;53.30;;;;;;5033591;28;20107;-69
2021/05/07 07:32:58;;;;;;;6.68;2.17;;;23.60;52.80;;;;;;5033744;28;20045;-71
2021/05/07 07:35:24;;;;;;;10.48;2.95;;;23.50;53.00;;;;;;5033666;28;20029;-70
2021/05/07 07:37:50;;;;;;;7.15;1.88;;;23.40;52.70;;;;;;5033843;28;20016;-70
2021/05/07 07:40:16;;;;;;;5.78;2.38;;;23.40;53.10;;;;;;5033886;28;20382;-70
2021/05/07 07:42:42;;;;;;;7.10;2.20;;;23.20;53.40;;;;;;5033438;28;20039;-69
2021/05/07 07:45:13;;;;;;;8.70;2.92;;;23.10;53.80;;;;;;5033687;28;20107;-70
2021/05/07 07:47:38;;;;;;;11.30;2.58;;;23.00;54.40;;;;;;5033596;28;20037;-69
2021/05/07 07:50:07;;;;;;;15.05;2.83;;;23.00;54.30;;;;;;5033411;28;20049;-71
2021/05/07 07:52:34;;;;;;;10.25;2.50;;;23.10;54.40;;;;;;5033438;28;20032;-70
2021/05/07 07:55:00;;;;;;;22.52;4.13;;;22.90;54.50;;;;;;5033379;28;20033;-70
2021/05/07 07:57:26;;;;;;;26.00;3.50;;;22.90;54.70;;;;;;5033448;28;20026;-72
2021/05/07 07:59:53;;;;;;;10.55;2.28;;;22.90;54.20;;;;;;5033361;28;20417;-70
2021/05/07 08:02:18;;;;;;;9.30;2.95;;;22.90;54.20;;;;;;5033455;28;20033;-70
2021/05/07 08:04:44;;;;;;;7.95;2.35;;;22.90;54.60;;;;;;5033344;28;20120;-70
2021/05/07 08:07:12;;;;;;;15.50;2.83;;;22.80;54.30;;;;;;5032754;28;20467;-69
2021/05/07 08:09:38;;;;;;;31.13;3.65;;;22.90;54.50;;;;;;5032793;28;20037;-70
2021/05/07 08:12:05;;;;;;;12.43;3.03;;;22.90;54.60;;;;;;5032726;28;20025;-70
2021/05/07 08:14:31;;;;;;;9.55;2.38;;;22.80;54.50;;;;;;5033409;28;20032;-71
2021/05/07 08:16:57;;;;;;;9.50;2.55;;;22.90;54.50;;;;;;5033136;28;20021;-69
2021/05/07 08:19:23;;;;;;;9.38;2.40;;;22.90;54.50;;;;;;5015357;28;20017;-70
2021/05/07 08:21:49;;;;;;;8.50;3.05;;;22.90;54.60;;;;;;5032751;28;20057;-71
2021/05/07 08:24:14;;;;;;;8.73;2.85;;;22.90;54.60;;;;;;5032692;28;20100;-70
2021/05/07 08:26:40;;;;;;;7.25;3.25;;;22.90;54.40;;;;;;5033003;28;20136;-69
2021/05/07 08:29:06;;;;;;;17.98;11.75;;;22.90;54.20;;;;;;5032730;28;20103;-69
2021/05/07 08:31:32;;;;;;;11.32;4.25;;;22.80;54.20;;;;;;5032943;28;20022;-68
2021/05/07 08:33:58;;;;;;;7.68;2.80;;;22.90;54.20;;;;;;5033061;28;20037;-71
2021/05/07 08:36:25;;;;;;;7.03;2.45;;;22.80;54.80;;;;;;5032945;28;20045;-69
2021/05/07 08:38:50;;;;;;;7.40;2.55;;;22.80;54.00;;;;;;5032535;28;20438;-71
2021/05/07 08:41:17;;;;;;;7.55;2.60;;;22.70;54.10;;;;;;5032908;28;20092;-71
2021/05/07 08:43:53;;;;;;;6.85;2.35;;;22.80;54.20;;;;;;5033133;28;20394;-72
2021/05/07 08:46:22;;;;;;;7.53;2.58;;;22.80;53.90;;;;;;5014152;28;20041;-71
2021/05/07 08:48:48;;;;;;;11.25;2.45;;;22.90;54.30;;;;;;5032214;28;20554;-71
2021/05/07 08:51:14;;;;;;;9.57;2.50;;;22.90;54.20;;;;;;5032435;28;20112;-69
2021/05/07 08:53:42;;;;;;;8.48;2.35;;;22.90;54.00;;;;;;5032419;28;20049;-70
2021/05/07 08:56:09;;;;;;;9.05;2.42;;;22.90;53.70;;;;;;5015314;28;20018;-70
2021/05/07 08:58:36;;;;;;;8.80;2.42;;;22.90;53.60;;;;;;5032432;28;20018;-70
2021/05/07 09:01:03;;;;;;;7.65;2.22;;;22.90;53.70;;;;;;5032501;28;20079;-70
2021/05/07 09:03:45;;;;;;;10.25;1.92;;;23.00;53.80;;;;;;5032568;28;20021;-70
2021/05/07 09:06:21;;;;;;;9.45;2.47;;;23.10;53.70;;;;;;5032402;28;20026;-71
2021/05/07 09:08:48;;;;;;;6.53;1.75;;;23.10;53.40;;;;;;5032343;28;20033;-74
2021/05/07 09:11:15;;;;;;;6.00;2.25;;;23.10;53.30;;;;;;5032095;28;20025;-71
2021/05/07 09:13:41;;;;;;;6.28;2.20;;;23.10;53.20;;;;;;5032496;28;20437;-70
2021/05/07 09:16:08;;;;;;;6.82;2.03;;;23.20;53.20;;;;;;5032446;28;20100;-72
2021/05/07 09:18:49;;;;;;;11.07;2.33;;;23.30;52.90;;;;;;5032691;28;20047;-71
2021/05/07 09:21:15;;;;;;;7.85;2.60;;;23.30;52.50;;;;;;5035420;28;20026;-69
2021/05/07 09:23:46;;;;;;;8.35;1.98;;;23.20;53.00;;;;;;5036357;28;20120;-69
2021/05/07 09:26:13;;;;;;;10.90;2.70;;;23.30;53.00;;;;;;5035941;28;20050;-69
2021/05/07 09:28:49;;;;;;;6.95;2.50;;;23.20;53.00;;;;;;5035914;28;20064;-69
2021/05/07 09:31:17;;;;;;;8.95;2.25;;;23.10;53.30;;;;;;5035898;28;20379;-69
2021/05/07 09:33:45;;;;;;;8.38;2.45;;;23.20;53.70;;;;;;5018254;28;20075;-71
2021/05/07 09:36:28;;;;;;;9.90;2.60;;;23.10;53.40;;;;;;5036021;28;20051;-69
2021/05/07 09:38:59;;;;;;;12.43;2.95;;;23.10;53.90;;;;;;5036009;28;20425;-70
2021/05/07 09:41:25;;;;;;;14.90;2.95;;;23.10;53.80;;;;;;5035718;28;20109;-70
2021/05/07 09:43:51;;;;;;;8.85;2.70;;;23.10;53.80;;;;;;5035663;28;20068;-69
2021/05/07 09:46:16;;;;;;;12.13;5.25;;;23.20;54.00;;;;;;5035891;28;20026;-70
2021/05/07 09:48:43;;;;;;;11.45;3.45;;;23.30;54.20;;;;;;5035672;28;20029;-70
2021/05/07 09:51:12;;;;;;;6.10;2.40;;;23.40;53.70;;;;;;5035244;28;20026;-69
2021/05/07 09:53:39;;;;;;;5.90;1.88;;;23.40;53.40;;;;;;5035724;28;20032;-69
2021/05/07 09:56:13;;;;;;;7.38;2.35;;;23.50;53.40;;;;;;5017334;28;20064;-70
2021/05/07 09:58:40;;;;;;;7.63;2.10;;;23.50;53.20;;;;;;5017517;28;20390;-69
2021/05/07 10:01:06;;;;;;;9.95;2.75;;;23.50;52.70;;;;;;5035766;28;20030;-71
2021/05/07 10:03:32;;;;;;;6.22;2.00;;;23.60;52.70;;;;;;5018052;28;20057;-70
2021/05/07 10:05:58;;;;;;;6.88;1.80;;;23.40;52.40;;;;;;5035453;28;20132;-71
2021/05/07 10:08:24;;;;;;;7.85;1.92;;;23.30;52.60;;;;;;5035328;28;20084;-70
2021/05/07 10:10:56;;;;;;;6.28;2.10;;;23.10;52.80;;;;;;5035153;28;20030;-70
2021/05/07 10:13:28;;;;;;;9.57;2.78;;;23.10;53.00;;;;;;5035516;28;20397;-70
2021/05/07 10:16:04;;;;;;;7.65;2.58;;;23.20;52.90;;;;;;5035392;28;20025;-72
2021/05/07 10:18:34;;;;;;;6.43;2.72;;;23.20;53.00;;;;;;5035293;28;20383;-70
2021/05/07 10:21:12;;;;;;;10.10;2.50;;;23.20;52.70;;;;;;5034882;28;20095;-69
2021/05/07 10:23:51;;;;;;;7.70;2.45;;;23.30;52.80;;;;;;5035008;28;20055;-71
2021/05/07 10:26:17;;;;;;;8.35;2.40;;;23.30;52.70;;;;;;5034940;28;20037;-73
2021/05/07 10:28:44;;;;;;;6.65;2.08;;;23.40;52.60;;;;;;5034984;28;20032;-70
2021/05/07 10:31:11;;;;;;;7.57;2.10;;;23.40;52.30;;;;;;5034041;28;20171;-70
2021/05/07 10:33:37;;;;;;;12.13;2.10;;;23.30;52.50;;;;;;5035184;28;20439;-69
2021/05/07 10:36:03;;;;;;;9.15;1.83;;;23.20;52.60;;;;;;5034800;28;20475;-70
2021/05/07 10:38:29;;;;;;;7.55;2.30;;;23.10;52.80;;;;;;5034658;28;20116;-72
2021/05/07 10:41:10;;;;;;;6.80;1.92;;;23.10;53.00;;;;;;5034632;28;20105;-70
2021/05/07 10:43:46;;;;;;;6.68;2.00;;;23.10;52.60;;;;;;5034512;28;20014;-71
2021/05/07 10:46:22;;;;;;;6.75;2.20;;;23.10;52.90;;;;;;5034475;28;20033;-70
2021/05/07 10:48:56;;;;;;;7.22;2.67;;;23.20;52.80;;;;;;5034534;28;20063;-70
2021/05/07 10:51:23;;;;;;;8.65;2.33;;;23.30;52.80;;;;;;5034693;28;20025;-70
2021/05/07 10:53:49;;;;;;;5.80;2.10;;;23.50;52.60;;;;;;5034376;28;20025;-69
2021/05/07 10:56:16;;;;;;;6.05;1.90;;;23.50;52.00;;;;;;5034334;28;20032;-69
2021/05/07 10:58:43;;;;;;;7.00;1.60;;;23.50;51.40;;;;;;5016385;28;20472;-69
2021/05/07 11:01:28;;;;;;;5.32;1.88;;;23.50;51.60;;;;;;5033865;28;20247;-69
2021/05/07 11:04:03;;;;;;;5.35;1.80;;;23.50;51.10;;;;;;5016559;28;20392;-69
2021/05/07 11:06:35;;;;;;;8.32;2.25;;;23.40;52.20;;;;;;5034249;28;20023;-71
2021/05/07 11:09:17;;;;;;;4.75;2.00;;;23.30;52.20;;;;;;5034051;28;20029;-69
2021/05/07 11:11:44;;;;;;;7.30;1.90;;;23.30;51.70;;;;;;5034072;28;20083;-69
2021/05/07 11:14:16;;;;;;;6.72;2.20;;;23.40;51.70;;;;;;5034194;28;20029;-70
2021/05/07 11:16:44;;;;;;;10.85;1.95;;;23.50;51.20;;;;;;5034114;28;20026;-68
2021/05/07 11:19:30;;;;;;;6.60;2.50;;;23.60;51.40;;;;;;5033690;28;20486;-69
2021/05/07 11:22:01;;;;;;;7.72;2.30;;;23.70;51.40;;;;;;5033773;28;20107;-69
2021/05/07 11:24:36;;;;;;;5.47;1.77;;;23.70;51.50;;;;;;5034502;28;20125;-70
2021/05/07 11:27:22;;;;;;;7.18;2.03;;;23.70;51.00;;;;;;5034070;28;20048;-69
2021/05/07 11:29:52;;;;;;;8.52;1.95;;;23.70;51.00;;;;;;5033618;28;20171;-70
2021/05/07 11:32:23;;;;;;;11.15;2.38;;;23.70;50.20;;;;;;5033995;28;20097;-72
2021/05/07 11:35:00;;;;;;;6.47;2.00;;;23.80;50.30;;;;;;5033960;28;20041;-71
2021/05/07 11:37:27;;;;;;;6.88;2.10;;;23.90;50.20;;;;;;5033804;28;20022;-71
2021/05/07 11:40:00;;;;;;;6.82;2.08;;;24.10;50.10;;;;;;5033788;28;20026;-69
2021/05/07 11:42:45;;;;;;;4.53;2.03;;;24.30;49.60;;;;;;5032855;28;20036;-73
2021/05/07 11:45:17;;;;;;;7.80;2.30;;;24.40;49.80;;;;;;5033779;28;20041;-72
2021/05/07 11:47:43;;;;;;;6.60;2.00;;;24.50;49.10;;;;;;5033693;28;20029;-71
2021/05/07 11:50:13;;;;;;;7.25;2.65;;;24.50;48.50;;;;;;5033538;28;20482;-71
2021/05/07 11:52:41;;;;;;;5.15;1.80;;;24.50;48.90;;;;;;5033455;28;20029;-72
2021/05/07 11:55:17;;;;;;;5.38;2.00;;;24.50;48.70;;;;;;5033602;28;20502;-69
2021/05/07 11:57:43;;;;;;;8.15;2.13;;;24.30;49.10;;;;;;5033829;28;20156;-70
2021/05/07 12:00:29;;;;;;;7.43;2.65;;;24.30;49.00;;;;;;5033605;28;20092;-72
2021/05/07 12:03:02;;;;;;;7.43;2.50;;;24.40;49.20;;;;;;5033132;28;20108;-70
2021/05/07 12:05:33;;;;;;;8.07;2.15;;;24.50;49.20;;;;;;5033651;28;20029;-71
2021/05/07 12:08:00;;;;;;;8.95;2.20;;;24.60;48.90;;;;;;5033319;28;20029;-70
2021/05/07 12:10:27;;;;;;;8.40;2.20;;;24.70;48.50;;;;;;5033170;28;20025;-70
2021/05/07 12:12:54;;;;;;;7.50;2.08;;;24.80;47.90;;;;;;5032885;28;20080;-70
2021/05/07 12:15:30;;;;;;;9.57;2.78;;;24.70;47.50;;;;;;5033225;28;20068;-70
2021/05/07 12:17:56;;;;;;;7.05;2.28;;;24.80;47.80;;;;;;5032929;28;20053;-69
2021/05/07 12:20:27;;;;;;;5.97;2.08;;;24.90;47.20;;;;;;5033072;28;20098;-70
2021/05/07 12:22:56;;;;;;;6.35;1.77;;;25.00;47.50;;;;;;5033057;28;20446;-70
2021/05/07 12:25:27;;;;;;;3.95;1.70;;;25.10;46.50;;;;;;5033180;28;20045;-72
2021/05/07 12:27:55;;;;;;;7.03;1.55;;;25.20;46.50;;;;;;5033086;28;20503;-71
2021/05/07 12:30:24;;;;;;;5.68;2.00;;;25.30;46.30;;;;;;5032944;28;20041;-71
2021/05/07 12:33:12;;;;;;;5.22;2.40;;;25.40;46.30;;;;;;5015153;28;20361;-69
2021/05/07 12:35:43;;;;;;;8.38;1.83;;;25.50;46.00;;;;;;5015366;28;20025;-69
2021/05/07 12:38:31;;;;;;;6.72;1.98;;;25.50;45.90;;;;;;5015167;28;20513;-71
2021/05/07 12:41:16;;;;;;;9.43;2.28;;;25.60;45.50;;;;;;5032628;28;20033;-71
2021/05/07 12:43:44;;;;;;;6.00;2.00;;;25.70;45.40;;;;;;5032945;28;20079;-70
2021/05/07 12:46:11;;;;;;;6.43;1.90;;;25.70;45.60;;;;;;5033025;28;20479;-70
2021/05/07 12:48:37;;;;;;;8.43;2.47;;;25.80;45.90;;;;;;5032810;28;20383;-71